CCA4127 ZBAA-ZUNZ
Flight info
| Callsign | CCA4127 |
|---|---|
| Flight time | N/A |
| Altitude | 34100 |
| Route | BOTPU W47 IDSOT W48 MAKIP H53 MULOB W220 NIRUV B215 VENIV W198 PANRA H60 XNN Z1 YUS Z3 IGELA ELNUN |
| Aircraft | A319/M-SDE2E3FGHIRWXY/LB2 |
Departure
| Time | N/A |
|---|---|
| Airport | Beijing Capital International Airport (ZBAA) |
Arrival
| Time | 2026-04-19 07:20 |
|---|---|
| Airport | Nyingchi Mainling Airport (ZUNZ) |
| Time | Latitude | Longitude | Altitude | Speed | Heading |
|---|---|---|---|---|---|
| 2026-04-19 06:47 | 31.68341 | 95.37329 | 34075 ft | 480 kts | 230° |
| 2026-04-19 06:48 | 31.64044 | 95.31315 | 34090 ft | 480 kts | 230° |
| 2026-04-19 06:48 | 31.59740 | 95.25312 | 34108 ft | 481 kts | 230° |
| 2026-04-19 06:49 | 31.55450 | 95.19359 | 34125 ft | 480 kts | 230° |
| 2026-04-19 06:49 | 31.51142 | 95.13372 | 34113 ft | 481 kts | 230° |
| 2026-04-19 06:50 | 31.46836 | 95.07378 | 34113 ft | 481 kts | 230° |
| 2026-04-19 06:50 | 31.42523 | 95.01389 | 34124 ft | 480 kts | 230° |
| 2026-04-19 06:51 | 31.38212 | 94.95430 | 34107 ft | 480 kts | 230° |
| 2026-04-19 06:51 | 31.33895 | 94.89464 | 34094 ft | 480 kts | 230° |
| 2026-04-19 06:52 | 31.29583 | 94.83517 | 34085 ft | 480 kts | 230° |
| 2026-04-19 06:52 | 31.25250 | 94.77560 | 34079 ft | 480 kts | 230° |
| 2026-04-19 06:53 | 31.20937 | 94.71609 | 34097 ft | 481 kts | 230° |
| 2026-04-19 06:53 | 31.16606 | 94.65646 | 34105 ft | 481 kts | 230° |
| 2026-04-19 06:54 | 31.12307 | 94.59745 | 34119 ft | 480 kts | 230° |
| 2026-04-19 06:54 | 31.07970 | 94.53822 | 34108 ft | 480 kts | 230° |
| 2026-04-19 06:55 | 31.03638 | 94.47908 | 34096 ft | 480 kts | 230° |
| 2026-04-19 06:55 | 30.99303 | 94.41978 | 34077 ft | 479 kts | 230° |
| 2026-04-19 06:56 | 30.94971 | 94.36066 | 34075 ft | 479 kts | 230° |
| 2026-04-19 06:56 | 30.90631 | 94.30160 | 34078 ft | 479 kts | 229° |
| 2026-04-19 06:57 | 30.86287 | 94.24273 | 34078 ft | 479 kts | 230° |
| 2026-04-19 06:57 | 30.81952 | 94.18382 | 34079 ft | 480 kts | 230° |
| 2026-04-19 06:58 | 30.77607 | 94.12484 | 34086 ft | 480 kts | 230° |
| 2026-04-19 06:58 | 30.73254 | 94.06586 | 33759 ft | 483 kts | 229° |
| 2026-04-19 06:59 | 30.71052 | 94.03621 | 33388 ft | 483 kts | 229° |
| 2026-04-19 06:59 | 30.68892 | 94.00717 | 33019 ft | 484 kts | 229° |
| 2026-04-19 06:59 | 30.66691 | 93.97759 | 32647 ft | 482 kts | 229° |
| 2026-04-19 06:59 | 30.64491 | 93.94797 | 32271 ft | 485 kts | 229° |
| 2026-04-19 07:00 | 30.62290 | 93.91830 | 31895 ft | 486 kts | 229° |
| 2026-04-19 07:00 | 30.60078 | 93.88851 | 31520 ft | 487 kts | 229° |
| 2026-04-19 07:00 | 30.57862 | 93.85870 | 31148 ft | 487 kts | 229° |
| 2026-04-19 07:00 | 30.55650 | 93.82901 | 30770 ft | 484 kts | 229° |
| 2026-04-19 07:01 | 30.53446 | 93.79940 | 30398 ft | 488 kts | 229° |
| 2026-04-19 07:01 | 30.51219 | 93.76948 | 30033 ft | 491 kts | 229° |
| 2026-04-19 07:01 | 30.48989 | 93.73955 | 29642 ft | 490 kts | 229° |
| 2026-04-19 07:01 | 30.46764 | 93.70970 | 29267 ft | 486 kts | 229° |
| 2026-04-19 07:02 | 30.44504 | 93.68069 | 28885 ft | 485 kts | 223° |
| 2026-04-19 07:02 | 30.41780 | 93.65788 | 28500 ft | 482 kts | 207° |
| 2026-04-19 07:02 | 30.38706 | 93.64462 | 28137 ft | 476 kts | 192° |
| 2026-04-19 07:02 | 30.35435 | 93.64143 | 27760 ft | 473 kts | 176° |
| 2026-04-19 07:03 | 30.32208 | 93.64842 | 27389 ft | 473 kts | 161° |
| 2026-04-19 07:03 | 30.29231 | 93.66487 | 27006 ft | 475 kts | 149° |
| 2026-04-19 07:03 | 30.26410 | 93.68455 | 26638 ft | 473 kts | 149° |
| 2026-04-19 07:03 | 30.23608 | 93.70413 | 26260 ft | 468 kts | 149° |
| 2026-04-19 07:04 | 30.20830 | 93.72354 | 25883 ft | 464 kts | 149° |
| 2026-04-19 07:04 | 30.18094 | 93.74263 | 25508 ft | 453 kts | 149° |
| 2026-04-19 07:04 | 30.15419 | 93.76126 | 25133 ft | 443 kts | 149° |
| 2026-04-19 07:04 | 30.12813 | 93.77942 | 24752 ft | 433 kts | 149° |
| 2026-04-19 07:05 | 30.10256 | 93.79722 | 24376 ft | 424 kts | 149° |
| 2026-04-19 07:05 | 30.07743 | 93.81466 | 23997 ft | 417 kts | 149° |
| 2026-04-19 07:05 | 30.05313 | 93.83152 | 23667 ft | 409 kts | 149° |
| 2026-04-19 07:05 | 30.02917 | 93.84816 | 23589 ft | 393 kts | 149° |
| 2026-04-19 07:06 | 30.00611 | 93.86420 | 23608 ft | 381 kts | 149° |
| 2026-04-19 07:06 | 29.98369 | 93.87973 | 23608 ft | 370 kts | 149° |
| 2026-04-19 07:06 | 29.96203 | 93.89472 | 23608 ft | 355 kts | 149° |
| 2026-04-19 07:06 | 29.94103 | 93.90927 | 23608 ft | 350 kts | 149° |
| 2026-04-19 07:07 | 29.92012 | 93.92380 | 23609 ft | 350 kts | 149° |
| 2026-04-19 07:07 | 29.89899 | 93.93786 | 23454 ft | 352 kts | 154° |
| 2026-04-19 07:07 | 29.87644 | 93.94840 | 23207 ft | 347 kts | 162° |
| 2026-04-19 07:07 | 29.85350 | 93.95723 | 22954 ft | 347 kts | 162° |
| 2026-04-19 07:08 | 29.83070 | 93.96603 | 22705 ft | 344 kts | 161° |
| 2026-04-19 07:08 | 29.80846 | 93.97469 | 22457 ft | 340 kts | 161° |
| 2026-04-19 07:08 | 29.78624 | 93.98463 | 22204 ft | 337 kts | 153° |
| 2026-04-19 07:08 | 29.76694 | 93.99904 | 21954 ft | 335 kts | 140° |
| 2026-04-19 07:09 | 29.75073 | 94.01804 | 21698 ft | 333 kts | 128° |
| 2026-04-19 07:09 | 29.73830 | 94.04052 | 21454 ft | 332 kts | 116° |
| 2026-04-19 07:09 | 29.73023 | 94.06542 | 21201 ft | 331 kts | 103° |
| 2026-04-19 07:09 | 29.72705 | 94.09155 | 20950 ft | 330 kts | 91° |
| 2026-04-19 07:10 | 29.72867 | 94.11780 | 20698 ft | 328 kts | 79° |
| 2026-04-19 07:10 | 29.73493 | 94.14294 | 20449 ft | 327 kts | 68° |
| 2026-04-19 07:10 | 29.74191 | 94.16772 | 20197 ft | 326 kts | 77° |
| 2026-04-19 07:10 | 29.74525 | 94.19352 | 19944 ft | 325 kts | 86° |
| 2026-04-19 07:11 | 29.74497 | 94.21934 | 19696 ft | 323 kts | 96° |
| 2026-04-19 07:11 | 29.74126 | 94.24486 | 19443 ft | 322 kts | 104° |
| 2026-04-19 07:11 | 29.73695 | 94.26120 | 19276 ft | 321 kts | 110° |
| 2026-04-19 07:11 | 29.72412 | 94.29172 | 18930 ft | 319 kts | 122° |
| 2026-04-19 07:12 | 29.71080 | 94.31254 | 18522 ft | 320 kts | 131° |
| 2026-04-19 07:12 | 29.70058 | 94.32470 | 18240 ft | 321 kts | 138° |
| 2026-04-19 07:12 | 29.68301 | 94.34069 | 17899 ft | 319 kts | 147° |
| 2026-04-19 07:12 | 29.65769 | 94.35614 | 17631 ft | 302 kts | 158° |
| 2026-04-19 07:13 | 29.63889 | 94.36630 | 17186 ft | 296 kts | 150° |
| 2026-04-19 07:13 | 29.62740 | 94.37475 | 16820 ft | 296 kts | 144° |
| 2026-04-19 07:13 | 29.61223 | 94.38982 | 16198 ft | 297 kts | 134° |
| 2026-04-19 07:13 | 29.59919 | 94.40799 | 15779 ft | 293 kts | 125° |
| 2026-04-19 07:14 | 29.58587 | 94.42585 | 15367 ft | 295 kts | 141° |
| 2026-04-19 07:14 | 29.56840 | 94.43814 | 14972 ft | 295 kts | 159° |
| 2026-04-19 07:14 | 29.54201 | 94.44348 | 14445 ft | 293 kts | 184° |
| 2026-04-19 07:14 | 29.52849 | 94.44122 | 14173 ft | 286 kts | 194° |
| 2026-04-19 07:15 | 29.50966 | 94.43693 | 13788 ft | 273 kts | 186° |
| 2026-04-19 07:15 | 29.49119 | 94.43660 | 13430 ft | 261 kts | 175° |
| 2026-04-19 07:15 | 29.45794 | 94.44705 | 12752 ft | 237 kts | 154° |
| 2026-04-19 07:16 | 29.44307 | 94.45364 | 12449 ft | 220 kts | 167° |
| 2026-04-19 07:16 | 29.42874 | 94.45548 | 12231 ft | 197 kts | 181° |
| 2026-04-19 07:16 | 29.41572 | 94.45358 | 11975 ft | 181 kts | 194° |
| 2026-04-19 07:16 | 29.40420 | 94.44888 | 11760 ft | 172 kts | 207° |
| 2026-04-19 07:17 | 29.39413 | 94.44189 | 11556 ft | 165 kts | 215° |
| 2026-04-19 07:17 | 29.38448 | 94.43444 | 11354 ft | 167 kts | 215° |
| 2026-04-19 07:17 | 29.37489 | 94.42716 | 11146 ft | 165 kts | 214° |
| 2026-04-19 07:17 | 29.36528 | 94.41989 | 10948 ft | 165 kts | 214° |
| 2026-04-19 07:18 | 29.35594 | 94.41225 | 10746 ft | 164 kts | 219° |
| 2026-04-19 07:18 | 29.34763 | 94.40363 | 10541 ft | 163 kts | 226° |
| 2026-04-19 07:18 | 29.34017 | 94.39384 | 10360 ft | 162 kts | 233° |
| 2026-04-19 07:18 | 29.33349 | 94.38348 | 10262 ft | 162 kts | 235° |
| 2026-04-19 07:19 | 29.32699 | 94.37285 | 10140 ft | 163 kts | 236° |
| 2026-04-19 07:19 | 29.32044 | 94.36227 | 9958 ft | 162 kts | 234° |
| 2026-04-19 07:19 | 29.31396 | 94.35180 | 9793 ft | 162 kts | 235° |
| 2026-04-19 07:19 | 29.30757 | 94.34144 | 9703 ft | 150 kts | 234° |
| 2026-04-19 07:20 | 29.30240 | 94.33305 | 9691 ft | 105 kts | 234° |
| 2026-04-19 07:20 | 29.29918 | 94.32785 | 9680 ft | 55 kts | 235° |
| 2026-04-19 07:20 | 29.29780 | 94.32561 | 9673 ft | 25 kts | 235° |
| 2026-04-19 07:20 | 29.29680 | 94.32397 | 9669 ft | 22 kts | 234° |
| 2026-04-19 07:21 | 29.29618 | 94.32270 | 9666 ft | 14 kts | 276° |
| 2026-04-19 07:21 | 29.29689 | 94.32196 | 9666 ft | 15 kts | 324° |
| 2026-04-19 07:21 | 29.29754 | 94.32203 | 9667 ft | 10 kts | 46° |
| 2026-04-19 07:21 | 29.29792 | 94.32265 | 9668 ft | 9 kts | 56° |
| 2026-04-19 07:22 | 29.29825 | 94.32322 | 9670 ft | 8 kts | 54° |
| 2026-04-19 07:22 | 29.29859 | 94.32374 | 9672 ft | 10 kts | 53° |
| 2026-04-19 07:22 | 29.29908 | 94.32451 | 9673 ft | 14 kts | 56° |
| 2026-04-19 07:22 | 29.29971 | 94.32553 | 9675 ft | 18 kts | 53° |
| 2026-04-19 07:23 | 29.30043 | 94.32668 | 9678 ft | 17 kts | 54° |
| 2026-04-19 07:23 | 29.30111 | 94.32778 | 9681 ft | 17 kts | 55° |
| 2026-04-19 07:23 | 29.30177 | 94.32886 | 9685 ft | 17 kts | 54° |
| 2026-04-19 07:23 | 29.30247 | 94.32997 | 9687 ft | 18 kts | 55° |
| 2026-04-19 07:24 | 29.30317 | 94.33112 | 9691 ft | 18 kts | 54° |
| 2026-04-19 07:24 | 29.30385 | 94.33222 | 9695 ft | 16 kts | 55° |
| 2026-04-19 07:24 | 29.30452 | 94.33331 | 9695 ft | 17 kts | 52° |
| 2026-04-19 07:24 | 29.30523 | 94.33444 | 9694 ft | 17 kts | 54° |
| 2026-04-19 07:25 | 29.30584 | 94.33537 | 9694 ft | 12 kts | 39° |
| 2026-04-19 07:25 | 29.30661 | 94.33509 | 9691 ft | 12 kts | 326° |
| 2026-04-19 07:25 | 29.30716 | 94.33546 | 9690 ft | 11 kts | 55° |
| 2026-04-19 07:25 | 29.30763 | 94.33585 | 9689 ft | 9 kts | 346° |
| 2026-04-19 07:26 | 29.30775 | 94.33577 | 9688 ft | 0 kts | 324° |
| 2026-04-19 07:26 | 29.30778 | 94.33575 | 9688 ft | 0 kts | 323° |
| 2026-04-19 07:26 | 29.30779 | 94.33574 | 9688 ft | 0 kts | 323° |